Time;durP1;ratioP1;P1;durP2;ratioP2;P2;SDS_P1;SDS_P2;PMS_P1;PMS_P2;Temp;Humidity;BMP_temperature;BMP_pressure;BME280_temperature;BME280_humidity;BME280_pressure;Samples;Min_cycle;Max_cycle;Signal;HPM_P1;HPM_P2
2023/04/17 00:02:21;;;;;;;2.13;1.58;;;12.00;99.90;;;;;;5012397;28;20041;-52
2023/04/17 00:04:47;;;;;;;4.00;1.85;;;11.90;99.90;;;;;;5010553;28;20034;-52
2023/04/17 00:07:13;;;;;;;2.90;2.20;;;11.90;99.90;;;;;;4978365;28;20406;-52
2023/04/17 00:09:38;;;;;;;2.90;1.75;;;11.90;99.90;;;;;;5010263;28;20040;-52
2023/04/17 00:12:04;;;;;;;2.05;1.85;;;11.90;99.90;;;;;;5011270;28;20038;-52
2023/04/17 00:14:30;;;;;;;2.25;1.92;;;11.90;99.90;;;;;;4986909;28;20442;-53
2023/04/17 00:16:56;;;;;;;2.25;1.77;;;11.80;99.90;;;;;;5008514;28;20046;-51
2023/04/17 00:19:21;;;;;;;2.83;1.90;;;11.80;99.90;;;;;;5012724;28;20034;-52
2023/04/17 00:21:47;;;;;;;1.70;1.50;;;11.80;99.90;;;;;;5010921;28;20446;-51
2023/04/17 00:24:13;;;;;;;1.70;1.60;;;11.90;99.90;;;;;;5011878;28;20033;-52
2023/04/17 00:26:39;;;;;;;2.30;1.83;;;11.80;99.90;;;;;;5014098;28;20030;-52
2023/04/17 00:29:05;;;;;;;2.00;1.80;;;11.80;99.90;;;;;;5009628;28;20105;-52
2023/04/17 00:31:30;;;;;;;2.20;1.67;;;11.80;99.90;;;;;;4957798;28;20092;-52
2023/04/17 00:33:57;;;;;;;2.13;1.50;;;11.80;99.90;;;;;;4991713;28;20379;-52
2023/04/17 00:36:24;;;;;;;2.08;1.70;;;11.70;99.90;;;;;;4977832;28;20177;-52
2023/04/17 00:38:49;;;;;;;3.40;2.00;;;11.70;99.90;;;;;;5008807;28;20554;-53
2023/04/17 00:41:15;;;;;;;2.17;1.98;;;11.70;99.90;;;;;;5008482;28;20136;-52
2023/04/17 00:43:41;;;;;;;2.65;1.58;;;11.80;99.90;;;;;;5012750;28;20470;-52
2023/04/17 00:46:07;;;;;;;1.90;1.52;;;11.80;99.90;;;;;;5005347;28;20030;-52
2023/04/17 00:48:35;;;;;;;2.22;1.63;;;11.70;99.90;;;;;;5007707;28;20082;-52
2023/04/17 00:51:02;;;;;;;2.95;1.73;;;11.70;99.90;;;;;;4971546;28;20033;-52
2023/04/17 00:53:31;;;;;;;1.50;1.25;;;11.80;99.90;;;;;;5010542;28;20029;-52
2023/04/17 00:56:02;;;;;;;2.00;1.52;;;11.70;99.90;;;;;;5010225;28;20030;-52
2023/04/17 00:58:28;;;;;;;2.03;1.48;;;11.80;99.90;;;;;;5011941;28;20034;-53
2023/04/17 01:00:54;;;;;;;2.55;1.90;;;11.80;99.90;;;;;;5001896;28;20026;-52
2023/04/17 01:03:21;;;;;;;2.90;1.90;;;11.80;99.90;;;;;;5010747;28;20034;-52
2023/04/17 01:05:50;;;;;;;2.03;1.80;;;11.80;99.90;;;;;;4974462;28;20044;-52
2023/04/17 01:08:17;;;;;;;2.60;1.77;;;11.80;99.90;;;;;;5012086;28;20034;-52
2023/04/17 01:10:42;;;;;;;2.63;1.75;;;11.80;99.90;;;;;;4978319;28;20141;-52
2023/04/17 01:13:08;;;;;;;2.08;1.77;;;11.70;99.90;;;;;;5013476;28;20568;-52
2023/04/17 01:15:34;;;;;;;2.70;1.92;;;11.70;99.90;;;;;;5010026;28;20028;-52
2023/04/17 01:18:00;;;;;;;2.47;2.00;;;11.80;99.90;;;;;;5011465;28;20054;-52
2023/04/17 01:20:29;;;;;;;2.83;2.10;;;11.70;99.90;;;;;;5011563;28;20088;-53
2023/04/17 01:22:57;;;;;;;2.45;1.83;;;11.70;99.90;;;;;;5010693;28;20425;-52
2023/04/17 01:25:23;;;;;;;2.47;1.88;;;11.60;99.90;;;;;;5008834;28;20034;-52
2023/04/17 01:27:49;;;;;;;2.35;1.67;;;11.70;99.90;;;;;;5011341;28;20021;-52
2023/04/17 01:30:15;;;;;;;1.65;1.55;;;11.70;99.90;;;;;;5009641;28;20031;-51
2023/04/17 01:32:41;;;;;;;1.90;1.67;;;11.80;99.90;;;;;;5002091;28;20050;-52
2023/04/17 01:35:07;;;;;;;1.90;1.70;;;11.70;99.90;;;;;;5009887;28;20069;-52
2023/04/17 01:37:33;;;;;;;2.17;1.88;;;11.70;99.90;;;;;;4999933;28;20061;-52
2023/04/17 01:39:59;;;;;;;2.47;1.80;;;11.70;99.90;;;;;;5009202;28;20065;-53
2023/04/17 01:42:25;;;;;;;2.65;2.33;;;11.60;99.90;;;;;;4978172;28;20042;-52
2023/04/17 01:44:52;;;;;;;2.20;1.98;;;11.60;99.90;;;;;;4984315;28;20402;-52
2023/04/17 01:47:17;;;;;;;2.85;2.35;;;11.60;99.90;;;;;;5011919;28;20057;-52
2023/04/17 01:49:43;;;;;;;1.88;1.58;;;11.60;99.90;;;;;;4988576;28;20092;-54
2023/04/17 01:52:09;;;;;;;1.45;1.35;;;;;;;;;;5007149;28;20053;-52
2023/04/17 01:54:35;;;;;;;2.08;1.60;;;11.50;99.90;;;;;;5010879;28;20030;-52
2023/04/17 01:57:01;;;;;;;2.33;1.67;;;11.40;99.90;;;;;;5008514;28;20346;-52
2023/04/17 01:59:27;;;;;;;3.22;2.08;;;11.40;99.90;;;;;;5012385;28;20045;-53
2023/04/17 02:01:53;;;;;;;1.70;1.60;;;11.40;99.90;;;;;;5009466;28;20041;-52
2023/04/17 02:04:19;;;;;;;3.03;2.17;;;11.40;99.90;;;;;;5009944;28;20026;-52
2023/04/17 02:06:45;;;;;;;2.10;1.60;;;11.40;99.90;;;;;;5010883;28;20084;-53
2023/04/17 02:09:11;;;;;;;2.00;1.70;;;11.50;99.90;;;;;;4964774;28;20639;-52
2023/04/17 02:11:36;;;;;;;2.20;1.42;;;11.50;99.90;;;;;;5008325;28;20532;-52
2023/04/17 02:14:02;;;;;;;1.90;1.70;;;11.50;99.90;;;;;;5011154;28;20033;-52
2023/04/17 02:16:28;;;;;;;1.77;1.67;;;11.50;99.90;;;;;;5009905;28;20053;-52
2023/04/17 02:18:54;;;;;;;2.38;1.90;;;11.60;99.90;;;;;;4975630;28;20049;-52
2023/04/17 02:21:20;;;;;;;2.45;1.80;;;11.70;99.90;;;;;;5012561;28;20030;-52
2023/04/17 02:23:46;;;;;;;1.90;1.65;;;11.70;99.90;;;;;;5011058;28;20375;-52
2023/04/17 02:26:12;;;;;;;1.88;1.65;;;11.70;99.90;;;;;;5009279;28;20034;-52
2023/04/17 02:28:38;;;;;;;2.28;1.83;;;11.70;99.90;;;;;;5002696;28;20043;-52
2023/04/17 02:31:07;;;;;;;2.00;1.80;;;11.70;99.90;;;;;;5009662;28;20085;-52
2023/04/17 02:33:36;;;;;;;2.35;1.92;;;11.80;99.90;;;;;;5009272;28;20061;-52
2023/04/17 02:36:03;;;;;;;2.72;2.38;;;11.70;99.90;;;;;;5002770;28;20077;-52
2023/04/17 02:38:29;;;;;;;2.25;1.88;;;11.80;99.90;;;;;;4974403;28;20457;-53
2023/04/17 02:40:56;;;;;;;3.30;2.55;;;11.80;99.90;;;;;;5009585;28;20025;-52
2023/04/17 02:43:21;;;;;;;2.75;2.03;;;11.80;99.90;;;;;;5012296;28;20053;-52
2023/04/17 02:45:47;;;;;;;2.38;2.00;;;11.80;99.90;;;;;;5008555;28;20457;-52
2023/04/17 02:48:13;;;;;;;1.85;1.70;;;11.70;99.90;;;;;;5011629;28;20029;-52
2023/04/17 02:50:38;;;;;;;1.65;1.33;;;11.60;99.90;;;;;;5010267;28;20033;-52
2023/04/17 02:53:04;;;;;;;3.08;2.33;;;11.60;99.90;;;;;;5008770;28;20030;-52
2023/04/17 02:55:30;;;;;;;3.15;1.98;;;11.60;99.90;;;;;;5010219;28;22229;-52
2023/04/17 02:57:55;;;;;;;2.92;2.40;;;11.60;99.90;;;;;;5011434;28;20030;-53
2023/04/17 03:00:21;;;;;;;3.00;2.60;;;11.60;99.90;;;;;;5008919;28;20089;-52
2023/04/17 03:02:47;;;;;;;3.75;2.50;;;11.70;99.90;;;;;;4964945;28;20066;-52
2023/04/17 03:05:14;;;;;;;3.08;2.00;;;11.70;99.90;;;;;;5010207;28;20030;-52
2023/04/17 03:07:40;;;;;;;3.67;2.50;;;11.70;99.90;;;;;;5012701;28;20025;-52
2023/04/17 03:10:07;;;;;;;1.58;1.48;;;11.70;99.90;;;;;;5008568;28;20504;-52
2023/04/17 03:12:33;;;;;;;2.30;2.10;;;11.70;99.90;;;;;;4986637;28;20077;-52
2023/04/17 03:14:59;;;;;;;3.05;2.40;;;11.80;99.90;;;;;;5010804;28;20022;-52
2023/04/17 03:17:25;;;;;;;4.25;2.92;;;11.90;99.90;;;;;;5002428;28;20128;-52
2023/04/17 03:19:51;;;;;;;2.97;2.60;;;11.80;99.90;;;;;;5011675;28;20122;-52
2023/04/17 03:22:17;;;;;;;2.80;2.13;;;11.80;99.90;;;;;;5011521;28;20077;-53
2023/04/17 03:24:42;;;;;;;2.75;2.22;;;11.80;99.90;;;;;;5013617;28;20029;-53
2023/04/17 03:27:08;;;;;;;3.05;2.50;;;11.80;99.90;;;;;;5012505;28;20038;-53
2023/04/17 03:29:34;;;;;;;3.10;2.45;;;11.80;99.90;;;;;;5014152;28;20029;-52
2023/04/17 03:32:00;;;;;;;4.70;3.28;;;11.80;99.90;;;;;;5012016;28;20473;-52
2023/04/17 03:34:27;;;;;;;2.72;2.25;;;11.80;99.90;;;;;;5011612;28;20088;-52
2023/04/17 03:36:52;;;;;;;3.03;2.42;;;11.80;99.90;;;;;;5008261;28;20046;-52
2023/04/17 03:39:18;;;;;;;4.10;2.92;;;11.80;99.90;;;;;;4990873;28;20061;-53
2023/04/17 03:41:44;;;;;;;4.63;2.97;;;11.80;99.90;;;;;;4970783;28;20125;-52
2023/04/17 03:44:09;;;;;;;4.10;3.20;;;11.80;99.90;;;;;;5007760;28;20540;-52
2023/04/17 03:46:36;;;;;;;3.20;2.80;;;11.80;99.90;;;;;;4963243;28;20394;-52
2023/04/17 03:49:02;;;;;;;3.35;2.72;;;11.90;99.90;;;;;;5010900;28;20058;-52
2023/04/17 03:51:28;;;;;;;3.95;2.60;;;11.80;99.90;;;;;;5011644;28;20069;-52
2023/04/17 03:53:54;;;;;;;3.72;2.80;;;11.80;99.90;;;;;;5002079;28;20101;-53
2023/04/17 03:56:20;;;;;;;3.90;3.10;;;11.80;99.90;;;;;;5013212;28;20038;-52
2023/04/17 03:58:46;;;;;;;2.90;2.65;;;11.80;99.90;;;;;;5014973;28;20108;-52
2023/04/17 04:01:13;;;;;;;3.42;2.58;;;11.80;99.90;;;;;;5013928;28;20425;-52
2023/04/17 04:03:39;;;;;;;4.50;2.92;;;11.80;99.90;;;;;;5013278;28;20462;-51
2023/04/17 04:06:08;;;;;;;4.13;2.88;;;11.70;99.90;;;;;;4974768;28;20118;-53
2023/04/17 04:08:34;;;;;;;4.03;3.33;;;11.60;99.90;;;;;;4971212;28;20038;-53
2023/04/17 04:11:00;;;;;;;4.82;3.60;;;11.60;99.90;;;;;;5010497;28;20559;-52
2023/04/17 04:13:26;;;;;;;4.38;3.00;;;11.70;99.90;;;;;;5014546;28;20503;-52
2023/04/17 04:15:52;;;;;;;4.78;3.13;;;11.80;99.90;;;;;;4977488;28;20041;-53
2023/04/17 04:18:18;;;;;;;2.97;2.72;;;11.70;99.90;;;;;;5012743;28;20393;-53
2023/04/17 04:20:44;;;;;;;2.58;2.13;;;11.70;99.90;;;;;;4978123;28;20128;-52
2023/04/17 04:23:09;;;;;;;3.95;2.95;;;11.60;99.90;;;;;;5012243;28;20034;-53
2023/04/17 04:25:40;;;;;;;4.25;2.85;;;11.50;99.90;;;;;;4969967;28;20042;-53
2023/04/17 04:28:06;;;;;;;3.90;3.05;;;11.50;99.90;;;;;;5007830;28;20042;-52
2023/04/17 04:30:34;;;;;;;3.55;2.88;;;11.60;99.90;;;;;;5014075;28;20489;-52
2023/04/17 04:33:04;;;;;;;4.53;3.30;;;11.70;99.90;;;;;;5011032;28;20033;-52
2023/04/17 04:35:30;;;;;;;2.97;2.33;;;11.70;99.90;;;;;;5013348;28;20042;-53
2023/04/17 04:38:00;;;;;;;3.45;2.75;;;11.70;99.90;;;;;;5010024;28;20109;-52
2023/04/17 04:40:27;;;;;;;4.47;3.28;;;11.70;99.90;;;;;;4978852;28;20049;-52
2023/04/17 04:42:54;;;;;;;4.60;3.83;;;11.60;99.90;;;;;;5011935;28;20026;-53
2023/04/17 04:45:20;;;;;;;4.28;3.15;;;11.70;99.90;;;;;;5011913;28;20046;-53
2023/04/17 04:47:46;;;;;;;3.00;2.60;;;11.80;99.90;;;;;;5014019;28;20374;-53
2023/04/17 04:50:12;;;;;;;5.07;3.08;;;11.70;99.90;;;;;;4977820;28;20042;-53
2023/04/17 04:52:37;;;;;;;2.72;2.22;;;11.80;99.90;;;;;;5012569;28;20113;-52
2023/04/17 04:55:04;;;;;;;3.20;2.72;;;11.80;99.90;;;;;;5013399;28;20030;-53
2023/04/17 04:57:30;;;;;;;5.22;3.67;;;11.70;99.90;;;;;;4979204;28;20120;-52
2023/04/17 04:59:55;;;;;;;4.50;2.78;;;11.90;99.90;;;;;;5005521;28;20133;-53
2023/04/17 05:02:21;;;;;;;4.20;3.67;;;11.90;99.90;;;;;;4980245;28;20153;-52
2023/04/17 05:04:47;;;;;;;4.90;3.42;;;12.00;99.90;;;;;;5008984;28;20133;-52
2023/04/17 05:07:13;;;;;;;3.75;3.15;;;12.10;99.90;;;;;;5003312;28;20038;-52
2023/04/17 05:09:38;;;;;;;4.95;2.75;;;12.10;99.90;;;;;;5010435;28;20028;-53
2023/04/17 05:12:04;;;;;;;4.63;3.25;;;12.10;99.90;;;;;;4977961;28;20485;-52
2023/04/17 05:14:30;;;;;;;5.05;3.63;;;12.20;99.90;;;;;;4978088;28;20060;-52
2023/04/17 05:16:55;;;;;;;5.28;3.95;;;12.10;99.90;;;;;;5011305;28;20057;-52
2023/04/17 05:19:21;;;;;;;4.57;3.13;;;12.20;99.90;;;;;;4979977;28;20046;-53
2023/04/17 05:21:47;;;;;;;5.28;3.65;;;12.30;99.90;;;;;;4972680;28;20040;-52
2023/04/17 05:24:13;;;;;;;5.78;4.03;;;;;;;;;;5011737;28;20038;-53
2023/04/17 05:26:39;;;;;;;5.20;4.03;;;12.40;99.90;;;;;;5003629;28;20045;-52
2023/04/17 05:29:05;;;;;;;4.53;3.72;;;12.50;99.90;;;;;;5008256;28;20037;-53
2023/04/17 05:31:31;;;;;;;5.28;3.28;;;12.50;99.90;;;;;;5011915;28;20053;-53
2023/04/17 05:33:56;;;;;;;9.23;4.75;;;12.60;99.90;;;;;;5012252;28;20496;-52
2023/04/17 05:36:22;;;;;;;4.00;3.13;;;12.60;99.90;;;;;;5008707;28;20036;-53
2023/04/17 05:38:48;;;;;;;6.22;3.58;;;12.40;99.90;;;;;;5009762;28;20033;-52
2023/04/17 05:41:14;;;;;;;4.03;3.22;;;12.50;99.90;;;;;;5011082;28;20034;-52
2023/04/17 05:43:41;;;;;;;2.88;2.47;;;12.50;99.90;;;;;;5012489;28;20026;-52
2023/04/17 05:46:07;;;;;;;4.40;2.95;;;12.60;99.90;;;;;;5009855;28;20400;-53
2023/04/17 05:48:33;;;;;;;3.05;2.60;;;12.70;99.90;;;;;;5010156;28;20038;-52
2023/04/17 05:50:58;;;;;;;4.78;3.65;;;12.80;99.90;;;;;;4977565;28;20034;-53
2023/04/17 05:53:24;;;;;;;4.82;3.65;;;12.80;99.90;;;;;;4949083;28;20042;-53
2023/04/17 05:55:50;;;;;;;4.72;3.30;;;12.70;99.90;;;;;;4944525;28;20121;-53
2023/04/17 05:58:16;;;;;;;4.65;2.78;;;12.60;99.90;;;;;;5012213;28;20124;-53
2023/04/17 06:00:42;;;;;;;2.88;1.85;;;12.70;99.90;;;;;;5004813;28;20056;-53
2023/04/17 06:03:07;;;;;;;4.93;3.90;;;12.60;99.90;;;;;;5001538;28;20038;-53
2023/04/17 06:05:33;;;;;;;5.03;3.28;;;12.70;99.90;;;;;;5009802;28;20065;-53
2023/04/17 06:07:59;;;;;;;4.45;3.28;;;12.80;99.90;;;;;;5003283;28;20030;-53
2023/04/17 06:10:25;;;;;;;4.03;3.33;;;12.80;99.90;;;;;;5011411;28;20108;-51
2023/04/17 06:12:52;;;;;;;4.10;3.13;;;;;;;;;;5012124;28;20040;-52
2023/04/17 06:15:17;;;;;;;5.03;3.80;;;12.90;99.90;;;;;;5008191;28;20061;-52
2023/04/17 06:17:43;;;;;;;5.55;3.78;;;12.90;99.90;;;;;;5009239;28;20069;-52
2023/04/17 06:20:10;;;;;;;4.80;3.20;;;12.80;99.90;;;;;;4978194;28;20050;-53
2023/04/17 06:22:36;;;;;;;5.32;3.47;;;12.90;99.90;;;;;;5010017;28;20030;-52
2023/04/17 06:25:03;;;;;;;4.28;3.08;;;13.00;99.90;;;;;;5010117;28;20033;-53
2023/04/17 06:27:28;;;;;;;3.63;3.03;;;13.00;99.90;;;;;;5004826;28;20065;-52
2023/04/17 06:29:54;;;;;;;4.25;3.10;;;13.00;99.90;;;;;;5002479;28;20062;-52
2023/04/17 06:32:20;;;;;;;5.15;3.88;;;13.00;99.90;;;;;;4992479;28;20084;-53
2023/04/17 06:34:45;;;;;;;3.95;3.22;;;12.90;99.90;;;;;;4989748;28;20041;-52
2023/04/17 06:37:11;;;;;;;5.00;3.40;;;13.10;99.90;;;;;;5010709;28;20030;-52
2023/04/17 06:39:37;;;;;;;3.80;3.17;;;13.00;99.90;;;;;;4993724;28;20396;-54
2023/04/17 06:42:05;;;;;;;4.13;2.88;;;13.00;99.90;;;;;;5006449;28;20477;-53
2023/04/17 06:44:31;;;;;;;4.25;2.75;;;13.00;99.90;;;;;;5012718;28;20156;-53
2023/04/17 06:46:57;;;;;;;5.25;3.70;;;;;;;;;;5009506;28;20034;-51
2023/04/17 06:49:23;;;;;;;5.10;4.13;;;13.20;99.90;;;;;;5008892;28;20112;-53
2023/04/17 06:51:50;;;;;;;4.63;3.40;;;13.30;99.90;;;;;;5013381;28;20037;-53
2023/04/17 06:54:16;;;;;;;5.05;3.88;;;13.30;99.90;;;;;;5013783;28;20042;-53
2023/04/17 06:56:42;;;;;;;4.10;3.17;;;13.40;99.90;;;;;;5012483;28;20018;-51
2023/04/17 06:59:08;;;;;;;5.82;4.28;;;13.40;99.90;;;;;;4996287;28;20057;-52
2023/04/17 07:01:34;;;;;;;4.35;3.40;;;13.50;99.90;;;;;;5013209;28;20113;-52
2023/04/17 07:04:01;;;;;;;5.95;4.03;;;13.40;99.90;;;;;;5015388;28;20026;-53
2023/04/17 07:06:28;;;;;;;5.15;3.72;;;13.50;99.90;;;;;;5014352;28;20041;-54
2023/04/17 07:08:53;;;;;;;3.95;3.20;;;13.50;99.90;;;;;;4981964;28;20492;-54
2023/04/17 07:11:19;;;;;;;4.60;2.85;;;13.40;99.90;;;;;;5013763;28;20025;-54
2023/04/17 07:13:45;;;;;;;4.43;3.08;;;13.30;99.90;;;;;;5014790;28;20026;-54
2023/04/17 07:16:10;;;;;;;4.38;3.25;;;13.30;99.90;;;;;;5013352;28;20112;-53
2023/04/17 07:18:36;;;;;;;4.20;3.40;;;13.20;99.90;;;;;;5012137;28;20041;-52
2023/04/17 07:21:02;;;;;;;5.00;3.55;;;13.30;99.90;;;;;;5013869;28;20022;-54
2023/04/17 07:23:28;;;;;;;7.55;3.75;;;13.40;99.90;;;;;;5013375;28;20026;-53
2023/04/17 07:25:53;;;;;;;5.05;3.22;;;13.60;99.90;;;;;;4994395;28;20448;-53
2023/04/17 07:28:20;;;;;;;5.00;3.60;;;;;;;;;;5013776;28;20026;-53
2023/04/17 07:30:46;;;;;;;4.78;3.15;;;;;;;;;;5013934;28;20041;-54
2023/04/17 07:33:12;;;;;;;5.35;3.95;;;14.00;99.90;;;;;;5013156;28;20121;-53
2023/04/17 07:35:37;;;;;;;5.28;3.20;;;14.20;99.90;;;;;;5015324;28;20121;-54
2023/04/17 07:38:03;;;;;;;4.28;3.38;;;14.20;99.90;;;;;;5013103;28;20030;-54
2023/04/17 07:40:30;;;;;;;5.63;3.80;;;14.50;99.90;;;;;;4995302;28;20440;-54
2023/04/17 07:42:56;;;;;;;3.05;2.75;;;14.80;99.90;;;;;;4993073;28;20553;-53
2023/04/17 07:45:22;;;;;;;5.65;4.10;;;14.50;99.90;;;;;;5012522;28;20114;-53
2023/04/17 07:47:49;;;;;;;6.18;3.33;;;14.70;99.90;;;;;;5003823;28;20371;-53
2023/04/17 07:50:15;;;;;;;4.97;3.60;;;;;;;;;;5013009;28;20436;-54
2023/04/17 07:52:41;;;;;;;5.68;4.00;;;14.80;99.90;;;;;;5013495;28;20080;-53
2023/04/17 07:55:07;;;;;;;4.82;3.40;;;14.50;99.90;;;;;;5014348;28;20033;-53
2023/04/17 07:57:33;;;;;;;4.43;3.45;;;14.70;99.90;;;;;;5012376;28;20021;-54
2023/04/17 07:59:59;;;;;;;4.63;3.30;;;14.60;99.90;;;;;;5011095;28;20033;-54
2023/04/17 08:02:25;;;;;;;4.38;3.13;;;14.50;99.90;;;;;;4974950;28;20091;-54
2023/04/17 08:04:51;;;;;;;4.85;3.70;;;14.60;99.90;;;;;;5011786;28;20095;-53
2023/04/17 08:07:19;;;;;;;5.20;3.67;;;14.30;99.90;;;;;;4992620;28;20420;-53
2023/04/17 08:09:45;;;;;;;4.65;3.25;;;14.40;99.90;;;;;;5012491;28;20113;-53
2023/04/17 08:12:11;;;;;;;3.33;2.35;;;14.50;99.90;;;;;;5013926;28;20497;-55
2023/04/17 08:14:39;;;;;;;4.55;3.63;;;14.50;99.90;;;;;;5012092;28;20115;-54
2023/04/17 08:17:06;;;;;;;4.10;3.22;;;14.60;99.90;;;;;;5006253;28;20038;-53
2023/04/17 08:19:32;;;;;;;3.83;2.63;;;14.40;99.90;;;;;;5010229;28;20217;-54
2023/04/17 08:22:03;;;;;;;4.75;3.10;;;14.30;99.90;;;;;;4996422;28;20128;-53
2023/04/17 08:24:30;;;;;;;5.28;3.67;;;14.30;99.90;;;;;;5011353;28;20029;-53
2023/04/17 08:26:56;;;;;;;5.30;3.70;;;14.30;99.90;;;;;;5009922;28;20070;-53
2023/04/17 08:29:22;;;;;;;5.68;3.50;;;14.40;99.90;;;;;;5012076;28;20081;-52
2023/04/17 08:31:48;;;;;;;4.20;3.63;;;14.50;99.90;;;;;;5014141;28;20036;-53
2023/04/17 08:34:14;;;;;;;3.42;2.95;;;14.50;99.90;;;;;;5012193;28;20038;-53
2023/04/17 08:36:40;;;;;;;6.38;4.32;;;14.20;99.90;;;;;;5011937;28;20018;-52
2023/04/17 08:39:06;;;;;;;5.30;4.10;;;14.50;99.90;;;;;;5014225;28;20054;-51
2023/04/17 08:41:38;;;;;;;5.65;3.78;;;14.60;99.90;;;;;;5011071;28;20033;-50
2023/04/17 08:44:04;;;;;;;4.57;3.90;;;14.90;99.90;;;;;;5008339;28;20027;-50
2023/04/17 08:46:31;;;;;;;5.15;3.92;;;14.80;99.90;;;;;;5004822;28;20084;-50
2023/04/17 08:48:57;;;;;;;6.78;5.03;;;15.10;99.90;;;;;;4992097;28;20485;-51
2023/04/17 08:51:26;;;;;;;4.85;4.25;;;15.30;99.90;;;;;;5014133;28;20045;-51
2023/04/17 08:53:52;;;;;;;7.80;4.57;;;15.40;99.90;;;;;;5010986;28;20091;-52
2023/04/17 08:56:19;;;;;;;7.35;5.25;;;15.50;99.90;;;;;;5012279;28;20500;-50
2023/04/17 08:58:45;;;;;;;6.53;4.80;;;15.40;99.90;;;;;;5010783;28;20034;-51
2023/04/17 09:01:14;;;;;;;4.80;4.10;;;15.30;99.90;;;;;;5012459;28;20112;-50
2023/04/17 09:03:45;;;;;;;7.90;5.50;;;15.20;99.90;;;;;;5008164;28;20038;-51
2023/04/17 09:06:12;;;;;;;5.85;4.40;;;15.30;99.90;;;;;;5013378;28;20041;-50
2023/04/17 09:08:52;;;;;;;7.50;5.63;;;15.10;99.90;;;;;;5011457;28;20076;-53
2023/04/17 09:11:18;;;;;;;6.28;4.82;;;15.00;99.90;;;;;;5011064;28;20029;-51
2023/04/17 09:13:44;;;;;;;8.27;5.20;;;15.20;99.90;;;;;;4973170;28;20399;-51
2023/04/17 09:16:14;;;;;;;6.32;4.00;;;15.20;99.90;;;;;;5009277;28;20045;-50
2023/04/17 09:18:41;;;;;;;6.95;4.50;;;15.40;99.90;;;;;;5011834;28;20046;-51
2023/04/17 09:21:08;;;;;;;7.85;5.05;;;15.20;99.90;;;;;;5007745;28;20049;-50
2023/04/17 09:23:49;;;;;;;6.72;5.15;;;15.50;99.90;;;;;;5012332;28;20125;-51
2023/04/17 09:26:23;;;;;;;5.95;4.18;;;15.60;99.90;;;;;;5004181;28;20493;-50
2023/04/17 09:29:10;;;;;;;7.00;4.93;;;15.70;99.90;;;;;;4975455;28;20041;-51
2023/04/17 09:31:37;;;;;;;4.97;3.80;;;;;;;;;;4949797;28;20513;-51
2023/04/17 09:34:14;;;;;;;6.72;4.03;;;16.20;99.90;;;;;;4987856;28;20042;-50
2023/04/17 09:36:42;;;;;;;6.18;4.07;;;15.80;99.90;;;;;;5009566;28;20116;-50
2023/04/17 09:39:25;;;;;;;7.25;5.18;;;15.80;99.90;;;;;;4938266;28;20413;-51
2023/04/17 09:42:05;;;;;;;5.38;4.28;;;15.90;99.90;;;;;;4974114;28;20044;-50
2023/04/17 09:44:31;;;;;;;7.13;4.93;;;15.70;99.90;;;;;;5010207;28;20385;-51
2023/04/17 09:46:59;;;;;;;7.60;5.45;;;15.80;99.90;;;;;;5008150;28;20053;-51
2023/04/17 09:49:54;;;;;;;7.03;4.63;;;15.80;99.90;;;;;;5009221;28;20466;-51
2023/04/17 09:52:24;;;;;;;7.38;4.97;;;15.90;99.90;;;;;;5003487;28;20026;-52
2023/04/17 09:54:52;;;;;;;5.35;4.35;;;15.80;99.90;;;;;;5010211;28;20038;-51
2023/04/17 09:57:18;;;;;;;7.25;5.22;;;15.70;99.90;;;;;;4993229;28;20065;-51
2023/04/17 09:59:48;;;;;;;6.30;4.97;;;15.60;99.90;;;;;;5006851;28;20041;-54
2023/04/17 10:02:17;;;;;;;8.00;5.40;;;15.40;99.90;;;;;;4959376;28;20096;-51
2023/04/17 10:04:45;;;;;;;7.22;5.05;;;15.60;99.90;;;;;;4977958;28;20042;-51
2023/04/17 10:07:15;;;;;;;6.70;4.85;;;15.60;99.90;;;;;;5007565;28;20047;-51
2023/04/17 10:09:42;;;;;;;7.78;5.50;;;15.60;99.90;;;;;;5007773;28;20048;-52
2023/04/17 10:12:17;;;;;;;7.80;5.38;;;15.60;99.90;;;;;;5013630;28;20040;-51
2023/04/17 10:14:47;;;;;;;8.10;5.40;;;15.70;99.90;;;;;;5011515;28;20477;-51
2023/04/17 10:17:46;;;;;;;7.18;5.28;;;15.70;99.90;;;;;;4962198;28;20157;-51
2023/04/17 10:20:14;;;;;;;7.95;5.55;;;15.70;99.90;;;;;;4937284;29;20051;-51
2023/04/17 10:22:41;;;;;;;8.43;5.93;;;15.70;99.90;;;;;;4937016;29;20119;-51
2023/04/17 10:25:12;;;;;;;8.52;6.03;;;15.60;99.90;;;;;;4918215;29;20043;-52
2023/04/17 10:27:39;;;;;;;7.90;4.53;;;15.60;99.90;;;;;;4941875;29;20454;-52
2023/04/17 10:30:09;;;;;;;8.82;5.47;;;15.40;99.90;;;;;;4944585;29;20467;-53
2023/04/17 10:32:35;;;;;;;7.93;5.32;;;15.40;99.90;;;;;;4921714;29;20040;-52
2023/04/17 10:35:21;;;;;;;9.43;5.50;;;15.40;99.90;;;;;;4934192;29;20043;-52
2023/04/17 10:37:47;;;;;;;8.27;5.30;;;15.50;99.90;;;;;;4948238;29;20031;-52
2023/04/17 10:40:36;;;;;;;9.40;6.03;;;15.60;99.90;;;;;;4936608;29;20454;-52
2023/04/17 10:46:08;;;;;;;9.52;5.70;;;15.70;99.90;;;;;;4917518;29;20151;-52
2023/04/17 10:48:49;;;;;;;8.00;6.05;;;15.90;99.90;;;;;;4942376;29;20501;-53
2023/04/17 10:51:21;;;;;;;10.48;6.68;;;16.10;99.90;;;;;;4938840;29;20218;-53
2023/04/17 10:54:05;;;;;;;;;;;16.20;99.90;;;;;;4941229;29;20038;-53
2023/04/17 10:56:39;;;;;;;7.90;5.38;;;16.20;99.90;;;;;;4994646;28;19910;-52
2023/04/17 10:59:10;;;;;;;9.38;5.60;;;16.30;99.90;;;;;;4987152;28;20058;-52
2023/04/17 11:01:56;;;;;;;10.23;6.60;;;16.40;99.90;;;;;;5011459;28;20508;-52
2023/04/17 11:04:25;;;;;;;10.65;6.85;;;16.40;99.90;;;;;;5011173;28;20076;-52
2023/04/17 11:06:52;;;;;;;6.78;4.97;;;16.30;99.90;;;;;;5010882;28;20025;-52
2023/04/17 11:09:23;;;;;;;13.02;6.97;;;16.20;99.90;;;;;;5014073;28;20897;-52
2023/04/17 11:11:49;;;;;;;9.55;7.03;;;;;;;;;;5010362;28;20022;-52
2023/04/17 11:14:17;;;;;;;13.48;6.45;;;16.70;99.90;;;;;;5012746;28;20478;-53
2023/04/17 11:16:44;;;;;;;10.43;6.13;;;;;;;;;;5012298;28;20043;-53
2023/04/17 11:19:12;;;;;;;9.93;6.32;;;;;;;;;;5010362;28;20037;-53
2023/04/17 11:21:39;;;;;;;10.02;5.88;;;;;;;;;;5013196;28;20038;-53
2023/04/17 11:24:05;;;;;;;7.95;5.78;;;;;;;;;;5012355;28;20129;-52
2023/04/17 11:26:31;;;;;;;8.77;6.25;;;17.00;99.90;;;;;;4962453;28;20042;-53
2023/04/17 11:28:58;;;;;;;8.52;5.10;;;16.90;99.90;;;;;;4987696;28;20031;-52
2023/04/17 11:31:24;;;;;;;10.38;6.03;;;17.00;99.90;;;;;;5011760;28;20532;-52
2023/04/17 11:33:50;;;;;;;7.15;5.25;;;16.90;99.90;;;;;;4964882;28;20030;-53
2023/04/17 11:36:15;;;;;;;9.88;5.72;;;16.90;99.90;;;;;;5011804;28;20038;-52
2023/04/17 11:38:47;;;;;;;8.85;6.18;;;16.80;99.90;;;;;;4978301;28;20054;-52
2023/04/17 11:41:13;;;;;;;8.05;5.30;;;16.80;99.90;;;;;;4989497;28;20057;-52
2023/04/17 11:43:39;;;;;;;9.20;5.80;;;16.80;99.90;;;;;;5012194;28;20519;-53
2023/04/17 11:46:05;;;;;;;7.70;5.43;;;16.70;99.90;;;;;;4975436;28;20120;-54
2023/04/17 11:48:31;;;;;;;9.80;6.13;;;16.70;99.90;;;;;;5008374;28;20030;-53
2023/04/17 11:51:00;;;;;;;7.65;5.18;;;16.60;99.90;;;;;;5012349;28;20113;-54
2023/04/17 11:53:26;;;;;;;8.73;5.38;;;16.60;99.90;;;;;;5009088;28;20482;-53
2023/04/17 11:56:15;;;;;;;10.25;6.63;;;16.50;99.90;;;;;;5014235;28;20022;-54
2023/04/17 11:58:48;;;;;;;17.17;9.57;;;16.40;99.90;;;;;;5010184;28;20033;-53
2023/04/17 12:01:15;;;;;;;12.90;6.93;;;16.10;99.90;;;;;;5012369;28;20036;-53
2023/04/17 12:03:41;;;;;;;10.55;6.35;;;16.20;99.90;;;;;;5009585;28;20029;-52
2023/04/17 12:06:07;;;;;;;11.60;6.53;;;16.10;99.90;;;;;;5010406;28;20029;-54
2023/04/17 12:08:52;;;;;;;10.77;6.85;;;16.10;99.90;;;;;;5011913;28;20490;-52
2023/04/17 12:11:28;;;;;;;7.45;4.70;;;16.10;99.90;;;;;;5011705;28;20030;-54
2023/04/17 12:13:54;;;;;;;7.40;5.50;;;16.00;99.90;;;;;;5011341;28;20105;-53
2023/04/17 12:16:23;;;;;;;10.52;7.05;;;16.00;99.90;;;;;;5011706;28;20721;-53
2023/04/17 12:18:49;;;;;;;8.35;5.78;;;16.00;99.90;;;;;;4985063;28;20053;-53
2023/04/17 12:21:15;;;;;;;7.00;5.78;;;15.90;99.90;;;;;;4981785;28;20046;-53
2023/04/17 12:23:41;;;;;;;8.68;6.45;;;15.90;99.90;;;;;;4970985;28;20050;-54
2023/04/17 12:26:07;;;;;;;10.85;6.25;;;15.90;99.90;;;;;;4969483;28;20050;-52
2023/04/17 12:28:34;;;;;;;10.73;7.53;;;15.90;99.90;;;;;;4981726;28;20529;-53
2023/04/17 12:30:59;;;;;;;9.70;6.68;;;16.00;99.90;;;;;;4989099;28;20433;-53
2023/04/17 12:33:25;;;;;;;9.65;6.43;;;16.10;99.90;;;;;;4984682;28;20034;-54
2023/04/17 12:35:51;;;;;;;7.93;5.20;;;16.20;99.90;;;;;;4982874;28;20473;-54
2023/04/17 12:38:17;;;;;;;10.50;6.65;;;16.20;99.90;;;;;;4948804;28;20129;-55
2023/04/17 12:40:44;;;;;;;5.68;4.07;;;16.10;99.90;;;;;;4986914;28;20430;-54
2023/04/17 12:43:10;;;;;;;7.60;5.20;;;16.10;99.90;;;;;;4985251;28;20100;-53
2023/04/17 12:45:37;;;;;;;8.57;6.05;;;16.00;99.90;;;;;;4985849;28;20034;-54
2023/04/17 12:48:04;;;;;;;7.70;4.93;;;16.00;99.90;;;;;;4949795;28;20502;-54
2023/04/17 12:50:30;;;;;;;9.15;5.05;;;15.90;99.90;;;;;;5006011;28;20034;-55
2023/04/17 12:52:56;;;;;;;6.63;4.88;;;15.90;99.90;;;;;;5010881;28;20462;-53
2023/04/17 12:55:21;;;;;;;7.57;4.65;;;15.80;99.90;;;;;;5010738;28;20378;-53